createdAt,value
2019-04-23T00:01:29.981Z,15.67
2019-04-23T00:04:01.054Z,13.10
2019-04-23T00:09:07.421Z,16.50
2019-04-23T00:11:37.427Z,17.73
2019-04-23T00:14:06.093Z,13.87
2019-04-23T00:16:42.936Z,14.33
2019-04-23T00:18:56.053Z,15.00
2019-04-23T00:21:46.025Z,19.43
2019-04-23T00:27:16.746Z,18.23
2019-04-23T00:29:42.184Z,27.13
2019-04-23T00:32:10.742Z,19.93
2019-04-23T00:34:42.606Z,17.30
2019-04-23T00:37:11.290Z,17.43
2019-04-23T00:39:41.248Z,14.97
2019-04-23T00:42:06.634Z,27.50
2019-04-23T00:44:43.256Z,15.63
2019-04-23T00:47:06.985Z,20.83
2019-04-23T00:49:40.351Z,17.10
2019-04-23T00:52:14.457Z,22.43
2019-04-23T00:54:39.214Z,22.17
2019-04-23T00:57:22.234Z,17.47
2019-04-23T00:59:44.795Z,20.83
2019-04-23T01:02:10.512Z,18.07
2019-04-23T01:04:41.521Z,19.63
2019-04-23T01:07:12.623Z,20.60
2019-04-23T01:09:47.433Z,26.87
2019-04-23T01:12:14.166Z,24.67
2019-04-23T01:14:38.568Z,16.47
2019-04-23T01:17:17.001Z,14.13
2019-04-23T01:20:24.624Z,21.20
2019-04-23T01:22:16.674Z,16.47
2019-04-23T01:25:04.714Z,23.90
2019-04-23T01:28:12.133Z,16.87
2019-04-23T01:30:45.437Z,23.27
2019-04-23T01:33:14.190Z,25.07
2019-04-23T01:35:50.976Z,24.80
2019-04-23T01:38:11.080Z,21.67
2019-04-23T01:40:40.658Z,23.57
2019-04-23T01:43:07.876Z,19.50
2019-04-23T01:45:34.224Z,23.87
2019-04-23T01:48:12.492Z,16.67
2019-04-23T01:50:48.392Z,17.53
2019-04-23T01:53:18.454Z,21.70
2019-04-23T01:55:46.973Z,20.67
2019-04-23T01:58:31.820Z,18.10
2019-04-23T02:00:47.843Z,18.10
2019-04-23T02:03:16.623Z,23.10
2019-04-23T02:05:48.090Z,19.40
2019-04-23T02:08:14.541Z,24.00
2019-04-23T02:10:55.571Z,24.43
2019-04-23T02:15:49.209Z,25.30
2019-04-23T02:18:15.981Z,28.00
2019-04-23T02:20:52.618Z,21.73
2019-04-23T02:23:44.382Z,21.07
2019-04-23T02:26:12.895Z,12.33
2019-04-23T02:31:43.179Z,25.93
2019-04-23T02:36:39.828Z,31.67
2019-04-23T02:43:59.626Z,21.20
2019-04-23T03:03:47.481Z,20.23
2019-04-23T03:06:09.674Z,19.00
2019-04-23T03:08:42.793Z,20.53
2019-04-23T03:11:20.699Z,21.53
2019-04-23T03:13:48.435Z,15.60
2019-04-23T03:22:00.375Z,17.40
2019-04-23T03:24:40.569Z,21.03
2019-04-23T03:29:40.527Z,17.27
2019-04-23T03:42:12.342Z,18.73
2019-04-23T03:47:13.975Z,24.40
2019-04-23T04:04:39.123Z,17.13
2019-04-23T04:07:18.588Z,17.27
2019-04-23T04:09:47.675Z,19.33
2019-04-23T04:12:29.330Z,16.57
2019-04-23T04:14:47.418Z,21.40
2019-04-23T04:22:32.997Z,16.37
2019-04-23T04:25:00.954Z,17.43
2019-04-23T04:27:12.403Z,19.73
2019-04-23T04:29:56.544Z,10.90
2019-04-23T04:32:11.868Z,18.07
2019-04-23T04:35:12.821Z,15.47
2019-04-23T04:37:37.773Z,22.97
2019-04-23T04:39:55.783Z,17.60
2019-04-23T04:44:47.343Z,17.53
2019-04-23T04:47:21.245Z,14.23
2019-04-23T04:49:58.407Z,15.33
2019-04-23T04:54:39.678Z,17.73
2019-04-23T05:04:55.910Z,15.13
2019-04-23T05:07:31.574Z,12.57
2019-04-23T05:12:23.599Z,13.43
2019-04-23T05:14:58.672Z,20.37
2019-04-23T05:20:12.901Z,16.10
2019-04-23T05:25:04.118Z,15.07
2019-04-23T05:27:47.253Z,15.07
2019-04-23T05:32:43.173Z,13.07
2019-04-23T05:35:16.885Z,13.20
2019-04-23T05:37:50.496Z,14.13
2019-04-23T05:40:25.341Z,14.00
2019-04-23T05:42:52.029Z,15.87
2019-04-23T05:45:08.283Z,14.73
2019-04-23T05:47:47.844Z,17.30
2019-04-23T05:50:18.857Z,18.63
2019-04-23T05:52:45.872Z,19.80
2019-04-23T06:00:19.331Z,15.70
2019-04-23T06:02:48.432Z,16.33
2019-04-23T06:05:19.761Z,14.50
2019-04-23T06:10:24.159Z,18.43
2019-04-23T06:12:43.555Z,18.27
2019-04-23T06:15:20.169Z,19.77
2019-04-23T06:17:46.622Z,15.87
2019-04-23T06:20:33.705Z,12.60
2019-04-23T06:22:54.564Z,19.07
2019-04-23T06:25:40.783Z,18.20
2019-04-23T06:27:57.461Z,11.83
2019-04-23T06:30:33.171Z,18.40
2019-04-23T06:32:51.552Z,15.30
2019-04-23T06:35:25.490Z,16.03
2019-04-23T06:38:14.390Z,27.37
2019-04-23T06:40:25.218Z,21.90
2019-04-23T06:43:14.747Z,16.03
2019-04-23T06:45:38.886Z,15.97
2019-04-23T06:48:20.540Z,12.20
2019-04-23T06:50:54.545Z,12.93
2019-04-23T06:53:04.178Z,9.80
2019-04-23T06:55:42.299Z,12.83
2019-04-23T06:58:24.002Z,14.43
2019-04-23T07:00:53.927Z,12.60
2019-04-23T07:06:16.735Z,12.40
2019-04-23T07:11:16.693Z,14.47
2019-04-23T07:13:49.208Z,13.37
2019-04-23T07:16:12.856Z,12.23
2019-04-23T07:18:34.559Z,13.80
2019-04-23T07:21:12.977Z,14.23
2019-04-23T07:23:46.825Z,13.10
2019-04-23T07:26:21.274Z,12.47
2019-04-23T07:28:45.129Z,16.63
2019-04-23T07:31:28.397Z,12.37
2019-04-23T07:33:52.988Z,12.73
2019-04-23T07:36:17.558Z,11.93
2019-04-23T07:42:03.628Z,12.43
2019-04-23T07:44:50.165Z,12.90
2019-04-23T07:50:14.068Z,11.83
2019-04-23T07:52:33.472Z,10.70
2019-04-23T07:55:02.625Z,12.43
2019-04-23T07:57:40.110Z,12.10
2019-04-23T08:00:00.943Z,10.77
2019-04-23T08:02:29.945Z,7.50
2019-04-23T08:07:28.252Z,11.97
2019-04-23T08:10:02.368Z,16.50
2019-04-23T08:12:36.024Z,9.93
2019-04-23T08:14:59.972Z,11.03
2019-04-23T08:17:31.204Z,12.40
2019-04-23T08:20:02.527Z,9.43
2019-04-23T08:25:37.699Z,11.67
2019-04-23T08:28:13.474Z,8.57
2019-04-23T08:30:42.811Z,13.80
2019-04-23T08:33:33.487Z,11.30
2019-04-23T08:36:04.037Z,14.73
2019-04-23T08:38:30.797Z,16.83
2019-04-23T08:41:13.096Z,9.83
2019-04-23T08:43:42.333Z,13.03
2019-04-23T08:46:26.879Z,16.80
2019-04-23T08:49:01.344Z,13.67
2019-04-23T08:51:38.671Z,14.00
2019-04-23T08:53:55.509Z,8.77
2019-04-23T08:56:31.803Z,10.30
2019-04-23T08:58:49.352Z,13.93
2019-04-23T09:01:24.587Z,10.67
2019-04-23T09:03:58.050Z,10.33
2019-04-23T09:06:21.609Z,12.67
2019-04-23T09:09:12.488Z,13.13
2019-04-23T09:16:28.866Z,12.03
2019-04-23T09:19:02.698Z,9.97
2019-04-23T09:21:27.644Z,13.80
2019-04-23T09:26:30.955Z,13.47
2019-04-23T09:29:16.787Z,6.83
2019-04-23T09:32:05.688Z,11.30
2019-04-23T09:34:35.034Z,8.40
2019-04-23T09:37:26.466Z,8.57
2019-04-23T09:40:10.503Z,8.53
2019-04-23T09:48:06.745Z,10.53
2019-04-23T09:50:52.460Z,11.23
2019-04-23T09:55:43.101Z,7.37
2019-04-23T09:58:16.760Z,10.10
2019-04-23T10:00:48.868Z,9.03
2019-04-23T10:03:09.001Z,7.57
2019-04-23T10:05:33.945Z,13.63
2019-04-23T10:08:03.049Z,9.77
2019-04-23T10:10:26.006Z,7.83
2019-04-23T10:12:55.889Z,7.72
2019-04-23T10:15:30.821Z,6.67
2019-04-23T10:17:56.304Z,8.27
2019-04-23T10:20:24.972Z,8.87
2019-04-23T10:22:54.666Z,9.90
2019-04-23T10:25:23.180Z,7.83
2019-04-23T10:27:58.513Z,9.13
2019-04-23T10:30:23.743Z,6.57
2019-04-23T10:33:05.623Z,6.53
2019-04-23T10:35:44.442Z,4.87
2019-04-23T10:38:10.906Z,7.03
2019-04-23T10:40:41.605Z,4.97
2019-04-23T10:43:07.472Z,7.77
2019-04-23T10:46:11.805Z,4.97
2019-04-23T10:49:31.959Z,3.67
2019-04-23T10:52:02.613Z,5.00
2019-04-23T10:54:37.638Z,2.97
2019-04-23T10:57:11.270Z,4.43
2019-04-23T10:59:48.844Z,8.20
2019-04-23T11:04:53.684Z,6.40
2019-04-23T11:07:28.633Z,5.50
2019-04-23T11:10:51.158Z,7.43
2019-04-23T11:12:39.234Z,6.43
2019-04-23T11:15:27.283Z,7.73
2019-04-23T11:20:27.388Z,3.97
2019-04-23T11:27:52.534Z,5.83
2019-04-23T11:38:15.976Z,6.80
2019-04-23T11:40:33.994Z,10.00
2019-04-23T11:43:03.912Z,7.00
2019-04-23T11:50:40.640Z,6.67
2019-04-23T12:00:38.566Z,8.10
2019-04-23T12:03:19.531Z,6.73
2019-04-23T12:06:15.626Z,9.00
2019-04-23T12:14:16.538Z,9.30
2019-04-23T12:16:54.036Z,8.07
2019-04-23T12:19:41.375Z,8.40
2019-04-23T12:21:49.291Z,5.27
2019-04-23T12:24:16.268Z,5.77
2019-04-23T12:26:47.089Z,5.80
2019-04-23T12:29:09.722Z,7.77
2019-04-23T12:31:47.674Z,5.93
2019-04-23T12:34:18.001Z,5.03
2019-04-23T12:36:45.425Z,6.37
2019-04-23T12:39:30.471Z,7.83
2019-04-23T12:41:51.132Z,6.27
2019-04-23T12:44:26.972Z,11.00
2019-04-23T12:46:54.195Z,11.50
2019-04-23T12:49:45.948Z,6.50
2019-04-23T12:52:04.945Z,4.90
2019-04-23T12:54:52.298Z,8.67
2019-04-23T12:59:36.431Z,7.83
2019-04-23T13:04:42.188Z,6.53
2019-04-23T13:07:11.439Z,5.63
2019-04-23T13:09:48.839Z,8.97
2019-04-23T13:12:20.571Z,5.70
2019-04-23T13:14:49.636Z,6.83
2019-04-23T13:17:42.298Z,6.00
2019-04-23T13:19:56.590Z,4.47
2019-04-23T13:22:17.988Z,6.10
2019-04-23T13:27:54.337Z,6.10
2019-04-23T13:30:25.332Z,7.80
2019-04-23T13:32:52.188Z,7.10
2019-04-23T13:35:38.414Z,10.47
2019-04-23T13:37:57.307Z,6.97
2019-04-23T13:40:24.773Z,6.57
2019-04-23T13:42:52.618Z,4.80
2019-04-23T13:45:49.764Z,11.20
2019-04-23T13:48:07.979Z,4.77
2019-04-23T13:50:33.278Z,4.47
2019-04-23T13:55:22.890Z,4.97
2019-04-23T14:00:42.243Z,5.73
2019-04-23T14:02:48.831Z,7.73
2019-04-23T14:05:27.075Z,7.67
2019-04-23T14:08:03.273Z,8.87
2019-04-23T14:13:16.884Z,7.10
2019-04-23T14:15:40.534Z,13.33
2019-04-23T14:18:27.352Z,6.97
2019-04-23T14:20:34.904Z,9.47
2019-04-23T14:25:47.933Z,7.47
2019-04-23T14:28:17.583Z,5.10
2019-04-23T14:30:39.011Z,8.70
2019-04-23T14:33:11.515Z,4.80
2019-04-23T14:43:17.956Z,7.70
2019-04-23T14:46:02.512Z,5.30
2019-04-23T14:48:14.607Z,6.50
2019-04-23T14:51:09.449Z,6.47
2019-04-23T14:55:56.867Z,7.23
2019-04-23T15:01:07.252Z,7.83
2019-04-23T15:03:27.189Z,5.53
2019-04-23T15:06:06.755Z,5.47
2019-04-23T15:11:08.244Z,2.33
2019-04-23T15:13:22.729Z,3.63
2019-04-23T15:16:06.299Z,7.23
2019-04-23T15:18:46.754Z,7.30
2019-04-23T15:21:31.484Z,4.27
2019-04-23T15:24:00.266Z,4.70
2019-04-23T15:28:16.249Z,6.23
2019-04-23T15:31:19.386Z,6.33
2019-04-23T15:33:48.889Z,5.60
2019-04-23T15:41:18.493Z,6.27
2019-04-23T15:43:51.143Z,6.10
2019-04-23T15:48:57.929Z,2.07
2019-04-23T15:51:28.146Z,4.20
2019-04-23T15:53:48.581Z,7.07
2019-04-23T15:56:28.932Z,2.27
2019-04-23T15:59:07.570Z,5.47
2019-04-23T16:01:29.394Z,5.03
2019-04-23T16:03:24.492Z,4.67
2019-04-23T16:05:53.075Z,2.53
2019-04-23T16:08:59.401Z,1.50
2019-04-23T16:14:15.743Z,3.20
2019-04-23T16:16:30.154Z,4.30
2019-04-23T16:19:17.662Z,5.10
2019-04-23T16:24:13.009Z,3.67
2019-04-23T16:26:47.415Z,5.03
2019-04-23T16:31:47.124Z,2.90
2019-04-23T16:34:19.168Z,4.80
2019-04-23T16:36:43.829Z,5.67
2019-04-23T16:39:16.919Z,7.00
2019-04-23T16:44:24.113Z,2.30
2019-04-23T16:49:30.561Z,2.53
2019-04-23T16:51:53.865Z,3.80
2019-04-23T16:54:24.575Z,3.33
2019-04-23T16:59:18.662Z,2.47
2019-04-23T17:01:52.259Z,5.73
2019-04-23T17:06:53.195Z,4.83
2019-04-23T17:09:37.106Z,3.97
2019-04-23T17:11:59.096Z,5.03
2019-04-23T17:14:18.744Z,3.07
2019-04-23T17:17:00.001Z,6.77
2019-04-23T17:19:24.533Z,4.80
2019-04-23T17:22:02.777Z,5.23
2019-04-23T17:24:23.258Z,7.27
2019-04-23T17:27:05.474Z,6.53
2019-04-23T17:29:28.691Z,7.10
2019-04-23T17:32:00.491Z,6.17
2019-04-23T17:34:35.061Z,8.27
2019-04-23T17:37:19.726Z,4.77
2019-04-23T17:40:03.607Z,9.50
2019-04-23T17:42:27.320Z,6.53
2019-04-23T17:45:20.714Z,8.37
2019-04-23T17:47:52.365Z,3.77
2019-04-23T17:50:23.452Z,9.37
2019-04-23T17:52:51.040Z,12.13
2019-04-23T17:57:54.990Z,7.73
2019-04-23T18:00:25.147Z,8.27
2019-04-23T18:05:37.382Z,7.50
2019-04-23T18:08:08.517Z,8.93
2019-04-23T18:10:27.477Z,13.03
2019-04-23T18:12:58.340Z,11.00
2019-04-23T18:15:17.391Z,16.07
2019-04-23T18:18:01.936Z,9.57
2019-04-23T18:20:37.637Z,8.27
2019-04-23T18:25:45.750Z,9.40
2019-04-23T18:28:10.410Z,6.73
2019-04-23T18:31:06.441Z,12.43
2019-04-23T18:36:23.949Z,9.17
2019-04-23T18:39:01.512Z,9.47
2019-04-23T18:41:29.783Z,9.00
2019-04-23T18:43:58.922Z,13.73
2019-04-23T18:46:32.042Z,9.97
2019-04-23T18:48:53.353Z,14.00
2019-04-23T18:51:34.459Z,9.20
2019-04-23T18:54:14.878Z,15.23
2019-04-23T18:56:46.336Z,11.63
2019-04-23T18:59:09.037Z,13.17
2019-04-23T19:02:09.183Z,15.20
2019-04-23T19:04:54.270Z,13.43
2019-04-23T19:07:31.953Z,17.60
2019-04-23T19:10:29.196Z,16.53
2019-04-23T19:12:53.697Z,12.20
2019-04-23T19:15:29.750Z,16.67
2019-04-23T19:17:54.624Z,12.20
2019-04-23T19:20:45.239Z,12.37
2019-04-23T19:25:59.139Z,13.83
2019-04-23T19:31:10.298Z,15.43
2019-04-23T19:34:07.917Z,12.10
2019-04-23T19:36:40.293Z,9.97
2019-04-23T19:39:00.211Z,17.03
2019-04-23T19:41:26.796Z,13.93
2019-04-23T19:43:58.953Z,14.77
2019-04-23T19:46:41.879Z,17.77
2019-04-23T19:51:59.628Z,16.83
2019-04-23T19:54:34.024Z,16.07
2019-04-23T19:57:05.266Z,16.67
2019-04-23T19:59:43.096Z,15.93
2019-04-23T20:04:39.572Z,27.23
2019-04-23T20:09:50.430Z,16.73
2019-04-23T20:12:15.613Z,19.20
2019-04-23T20:14:48.816Z,18.50
2019-04-23T20:19:48.602Z,18.80
2019-04-23T20:22:33.891Z,20.10
2019-04-23T20:27:42.403Z,24.63
2019-04-23T20:33:53.061Z,20.40
2019-04-23T20:35:33.175Z,19.47
2019-04-23T20:40:43.194Z,17.93
2019-04-23T20:43:05.798Z,16.43
2019-04-23T20:45:46.584Z,19.80
2019-04-23T20:48:05.045Z,22.93
2019-04-23T20:50:39.547Z,14.63
2019-04-23T20:53:08.970Z,17.73
2019-04-23T20:58:54.800Z,16.60
2019-04-23T21:02:07.102Z,20.87
2019-04-23T21:04:08.791Z,20.60
2019-04-23T21:06:45.877Z,21.70
2019-04-23T21:11:48.346Z,23.20
2019-04-23T21:16:41.218Z,15.30
2019-04-23T21:19:25.127Z,20.23
2019-04-23T21:22:06.085Z,17.97
2019-04-23T21:24:36.524Z,15.83
2019-04-23T21:27:39.998Z,19.23
2019-04-23T21:30:10.818Z,21.80
2019-04-23T21:32:53.457Z,15.53
2019-04-23T21:35:16.908Z,21.27
2019-04-23T21:37:45.943Z,16.47
2019-04-23T21:40:57.157Z,24.03
2019-04-23T21:43:47.456Z,17.17
2019-04-23T21:46:07.259Z,14.87
2019-04-23T21:48:44.251Z,23.10
2019-04-23T21:51:09.500Z,17.93
2019-04-23T21:53:36.261Z,23.70
2019-04-23T21:58:51.416Z,21.13
2019-04-23T22:01:28.094Z,20.10
2019-04-23T22:04:11.609Z,20.20
2019-04-23T22:06:33.538Z,21.70
2019-04-23T22:08:59.458Z,14.77
2019-04-23T22:11:42.878Z,21.37
2019-04-23T22:16:23.760Z,20.53
2019-04-23T22:19:09.165Z,16.10
2019-04-23T22:21:32.955Z,17.13
2019-04-23T22:24:05.610Z,17.73
2019-04-23T22:26:28.430Z,18.87
2019-04-23T22:29:07.251Z,21.47
2019-04-23T22:31:37.840Z,19.57
2019-04-23T22:36:29.197Z,25.03
2019-04-23T22:41:37.157Z,23.20
2019-04-23T22:44:05.299Z,18.27
2019-04-23T22:46:35.404Z,20.13
2019-04-23T22:49:23.049Z,31.10
2019-04-23T22:51:57.626Z,19.83
2019-04-23T22:54:13.768Z,20.40
2019-04-23T22:56:51.917Z,18.13
2019-04-23T22:59:26.727Z,20.97
2019-04-23T23:04:20.584Z,16.43
2019-04-23T23:06:55.515Z,21.60
2019-04-23T23:09:25.862Z,17.00
2019-04-23T23:11:53.985Z,15.63
2019-04-23T23:14:24.120Z,23.20
2019-04-23T23:16:53.175Z,20.53
2019-04-23T23:19:28.451Z,24.17
2019-04-23T23:24:21.178Z,20.20
2019-04-23T23:26:55.968Z,22.20
2019-04-23T23:29:45.955Z,21.73
2019-04-23T23:32:02.215Z,24.73
2019-04-23T23:34:30.496Z,19.73
2019-04-23T23:37:07.488Z,24.93
2019-04-23T23:39:47.900Z,18.07
2019-04-23T23:41:59.351Z,20.30
2019-04-23T23:44:33.524Z,22.03
2019-04-23T23:47:04.396Z,24.70
2019-04-23T23:49:24.366Z,15.97
2019-04-23T23:52:03.527Z,22.07
2019-04-23T23:54:27.044Z,19.90
2019-04-23T23:57:06.722Z,22.83
2019-04-23T23:59:41.510Z,19.17
